createdAt,value
2023-05-20T00:00:10.548Z,16.22
2023-05-20T00:01:15.836Z,16.19
2023-05-20T00:02:21.152Z,16.18
2023-05-20T00:03:25.885Z,16.18
2023-05-20T00:04:30.367Z,16.17
2023-05-20T00:05:35.893Z,16.15
2023-05-20T00:06:41.186Z,16.15
2023-05-20T00:07:45.751Z,16.12
2023-05-20T00:08:50.630Z,16.11
2023-05-20T00:09:54.907Z,16.10
2023-05-20T00:11:00.237Z,16.11
2023-05-20T00:12:04.737Z,16.11
2023-05-20T00:13:09.051Z,16.08
2023-05-20T00:14:14.004Z,16.07
2023-05-20T00:15:19.051Z,16.06
2023-05-20T00:16:24.225Z,16.05
2023-05-20T00:17:29.355Z,16.04
2023-05-20T00:18:34.322Z,16.03
2023-05-20T00:19:39.127Z,16.03
2023-05-20T00:20:44.316Z,16.03
2023-05-20T00:21:49.521Z,16.03
2023-05-20T00:22:54.657Z,16.03
2023-05-20T00:24:00.268Z,16.03
2023-05-20T00:25:04.877Z,16.03
2023-05-20T00:26:10.114Z,16.02
2023-05-20T00:27:14.733Z,16.00
2023-05-20T00:28:19.278Z,15.98
2023-05-20T00:29:24.879Z,15.94
2023-05-20T00:30:29.987Z,15.93
2023-05-20T00:31:35.056Z,15.92
2023-05-20T00:32:40.131Z,15.91
2023-05-20T00:33:45.190Z,15.92
2023-05-20T00:34:57.476Z,15.92
2023-05-20T00:36:02.727Z,15.92
2023-05-20T00:37:06.680Z,15.88
2023-05-20T00:38:11.005Z,15.89
2023-05-20T00:39:16.406Z,15.89
2023-05-20T00:40:21.101Z,15.88
2023-05-20T00:41:25.929Z,15.88
2023-05-20T00:42:30.082Z,15.88
2023-05-20T00:43:34.441Z,15.89
2023-05-20T00:44:39.558Z,15.89
2023-05-20T00:45:44.748Z,15.89
2023-05-20T00:46:49.800Z,15.87
2023-05-20T00:47:54.552Z,15.88
2023-05-20T00:48:59.177Z,15.87
2023-05-20T00:50:03.679Z,15.88
2023-05-20T00:51:08.895Z,15.87
2023-05-20T00:52:13.905Z,15.86
2023-05-20T00:54:26.601Z,15.95
2023-05-20T00:55:31.740Z,15.83
2023-05-20T00:56:36.360Z,15.82
2023-05-20T00:57:41.530Z,15.79
2023-05-20T00:58:46.705Z,15.78
2023-05-20T00:59:51.526Z,15.80
2023-05-20T01:00:56.734Z,15.80
2023-05-20T01:02:02.142Z,15.79
2023-05-20T01:03:07.280Z,15.80
2023-05-20T01:04:12.322Z,15.81
2023-05-20T01:05:17.371Z,15.83
2023-05-20T01:06:22.214Z,15.85
2023-05-20T01:07:26.840Z,15.83
2023-05-20T01:08:32.112Z,15.83
2023-05-20T01:09:37.576Z,15.81
2023-05-20T01:10:44.896Z,15.81
2023-05-20T01:11:50.109Z,15.79
2023-05-20T01:12:56.709Z,15.78
2023-05-20T01:14:03.230Z,15.78
2023-05-20T01:15:09.509Z,15.78
2023-05-20T01:16:14.481Z,15.79
2023-05-20T01:17:19.688Z,15.76
2023-05-20T01:18:25.812Z,15.74
2023-05-20T01:19:31.721Z,15.68
2023-05-20T01:20:36.722Z,15.65
2023-05-20T01:21:41.353Z,15.63
2023-05-20T01:24:03.399Z,15.70
2023-05-20T01:25:08.659Z,15.60
2023-05-20T01:26:14.618Z,15.59
2023-05-20T01:27:19.159Z,15.57
2023-05-20T01:28:23.775Z,15.57
2023-05-20T01:29:29.052Z,15.56
2023-05-20T01:30:34.959Z,15.54
2023-05-20T01:31:39.790Z,15.54
2023-05-20T01:32:53.816Z,15.56
2023-05-20T01:33:58.621Z,15.57
2023-05-20T01:35:02.948Z,15.52
2023-05-20T01:36:09.428Z,15.52
2023-05-20T01:37:14.250Z,15.52
2023-05-20T01:38:19.310Z,15.52
2023-05-20T01:39:23.959Z,15.48
2023-05-20T01:40:28.807Z,15.44
2023-05-20T01:41:33.309Z,15.41
2023-05-20T01:42:38.022Z,15.41
2023-05-20T01:43:42.549Z,15.40
2023-05-20T01:44:47.735Z,15.38
2023-05-20T01:45:52.858Z,15.36
2023-05-20T01:46:59.590Z,15.35
2023-05-20T01:48:05.111Z,15.36
2023-05-20T01:49:09.887Z,15.34
2023-05-20T01:50:15.232Z,15.31
2023-05-20T01:51:20.166Z,15.30
2023-05-20T01:52:23.186Z,15.29
2023-05-20T01:53:28.035Z,15.28
2023-05-20T01:54:32.711Z,15.27
2023-05-20T01:55:37.772Z,15.26
2023-05-20T01:56:42.308Z,15.24
2023-05-20T01:57:46.778Z,15.21
2023-05-20T01:58:52.002Z,15.15
2023-05-20T01:59:56.822Z,15.12
2023-05-20T02:01:01.267Z,15.11
2023-05-20T02:02:07.043Z,15.12
2023-05-20T02:03:13.699Z,15.11
2023-05-20T02:04:17.981Z,15.13
2023-05-20T02:05:22.641Z,15.14
2023-05-20T02:06:28.064Z,15.15
2023-05-20T02:07:33.016Z,15.16
2023-05-20T02:08:37.317Z,15.18
2023-05-20T02:09:42.880Z,15.18
2023-05-20T02:10:50.034Z,15.17
2023-05-20T02:11:55.183Z,15.15
2023-05-20T02:12:59.752Z,15.14
2023-05-20T02:14:04.405Z,15.13
2023-05-20T02:15:10.183Z,15.12
2023-05-20T02:16:14.537Z,15.12
2023-05-20T02:17:20.089Z,15.13
2023-05-20T02:18:24.827Z,15.14
2023-05-20T02:19:29.644Z,15.15
2023-05-20T02:20:33.961Z,15.12
2023-05-20T02:21:39.181Z,15.09
2023-05-20T02:22:44.237Z,15.07
2023-05-20T02:23:48.839Z,15.06
2023-05-20T02:24:53.372Z,15.07
2023-05-20T02:25:58.043Z,15.08
2023-05-20T02:27:02.767Z,15.09
2023-05-20T02:28:07.988Z,15.11
2023-05-20T02:29:12.771Z,15.12
2023-05-20T02:30:18.440Z,15.13
2023-05-20T02:31:23.673Z,15.12
2023-05-20T02:32:28.754Z,15.08
2023-05-20T02:33:33.291Z,15.09
2023-05-20T02:34:37.739Z,15.08
2023-05-20T02:35:42.935Z,15.09
2023-05-20T02:36:48.273Z,15.10
2023-05-20T02:37:53.487Z,15.09
2023-05-20T02:38:58.080Z,15.08
2023-05-20T02:40:03.202Z,15.08
2023-05-20T02:41:07.853Z,15.07
2023-05-20T02:42:14.630Z,15.04
2023-05-20T02:43:19.720Z,15.03
2023-05-20T02:44:24.856Z,14.98
2023-05-20T02:45:29.884Z,14.94
2023-05-20T02:46:35.149Z,14.95
2023-05-20T02:47:39.927Z,14.95
2023-05-20T02:48:44.913Z,14.96
2023-05-20T02:49:50.118Z,14.97
2023-05-20T02:50:54.606Z,14.98
2023-05-20T02:51:59.601Z,14.98
2023-05-20T02:53:01.954Z,14.99
2023-05-20T02:54:06.981Z,14.99
2023-05-20T02:55:12.241Z,15.01
2023-05-20T02:56:17.335Z,15.01
2023-05-20T02:57:22.498Z,14.99
2023-05-20T02:58:27.185Z,14.99
2023-05-20T02:59:37.069Z,14.99
2023-05-20T03:00:41.723Z,15.00
2023-05-20T03:01:46.344Z,15.01
2023-05-20T03:02:51.119Z,15.02
2023-05-20T03:03:56.331Z,15.03
2023-05-20T03:05:01.404Z,15.02
2023-05-20T03:06:07.891Z,15.03
2023-05-20T03:07:12.943Z,15.01
2023-05-20T03:08:18.067Z,15.01
2023-05-20T03:09:23.052Z,15.01
2023-05-20T03:10:27.787Z,15.04
2023-05-20T03:11:32.384Z,15.05
2023-05-20T03:12:37.583Z,15.06
2023-05-20T03:13:42.754Z,15.06
2023-05-20T03:14:47.777Z,15.04
2023-05-20T03:15:52.808Z,15.04
2023-05-20T03:16:57.571Z,15.05
2023-05-20T03:18:02.202Z,15.07
2023-05-20T03:19:06.730Z,15.05
2023-05-20T03:20:15.172Z,15.05
2023-05-20T03:21:19.712Z,15.06
2023-05-20T03:22:24.356Z,15.07
2023-05-20T03:23:29.443Z,15.08
2023-05-20T03:24:34.505Z,15.09
2023-05-20T03:25:39.096Z,15.10
2023-05-20T03:26:43.520Z,15.13
2023-05-20T03:27:49.292Z,15.18
2023-05-20T03:28:53.933Z,15.22
2023-05-20T03:29:58.637Z,15.24
2023-05-20T03:31:03.611Z,15.27
2023-05-20T03:32:10.886Z,15.26
2023-05-20T03:33:15.292Z,15.28
2023-05-20T03:34:20.530Z,15.24
2023-05-20T03:35:26.086Z,15.20
2023-05-20T03:36:31.327Z,15.19
2023-05-20T03:37:36.019Z,15.21
2023-05-20T03:38:41.215Z,15.24
2023-05-20T03:39:46.228Z,15.26
2023-05-20T03:40:50.814Z,15.28
2023-05-20T03:41:57.165Z,15.26
2023-05-20T03:43:01.660Z,15.27
2023-05-20T03:44:05.705Z,15.28
2023-05-20T03:45:10.981Z,15.31
2023-05-20T03:46:18.266Z,15.33
2023-05-20T03:47:23.298Z,15.36
2023-05-20T03:48:28.280Z,15.37
2023-05-20T03:49:32.995Z,15.35
2023-05-20T03:50:38.328Z,15.34
2023-05-20T03:51:43.452Z,15.39
2023-05-20T03:52:49.609Z,15.42
2023-05-20T03:53:56.210Z,15.45
2023-05-20T03:55:01.410Z,15.49
2023-05-20T03:56:07.199Z,15.53
2023-05-20T03:57:12.058Z,15.54
2023-05-20T03:58:17.849Z,15.50
2023-05-20T03:59:23.840Z,15.48
2023-05-20T04:00:28.561Z,15.47
2023-05-20T04:01:33.315Z,15.47
2023-05-20T04:02:38.660Z,15.47
2023-05-20T04:03:43.913Z,15.47
2023-05-20T04:04:48.544Z,15.46
2023-05-20T04:05:53.680Z,15.45
2023-05-20T04:06:58.484Z,15.44
2023-05-20T04:08:03.914Z,15.43
2023-05-20T04:09:08.409Z,15.39
2023-05-20T04:10:14.795Z,15.36
2023-05-20T04:11:19.312Z,15.36
2023-05-20T04:12:24.416Z,15.37
2023-05-20T04:13:29.182Z,15.40
2023-05-20T04:14:35.699Z,15.42
2023-05-20T04:15:40.842Z,15.45
2023-05-20T04:16:46.012Z,15.46
2023-05-20T04:17:50.647Z,15.45
2023-05-20T04:18:55.187Z,15.46
2023-05-20T04:20:01.497Z,15.47
2023-05-20T04:21:07.242Z,15.48
2023-05-20T04:22:14.034Z,15.51
2023-05-20T04:23:18.726Z,15.54
2023-05-20T04:24:23.559Z,15.59
2023-05-20T04:25:28.710Z,15.60
2023-05-20T04:26:33.405Z,15.63
2023-05-20T04:27:38.816Z,15.67
2023-05-20T04:28:44.213Z,15.70
2023-05-20T04:29:49.420Z,15.73
2023-05-20T04:30:59.977Z,15.78
2023-05-20T04:32:04.588Z,15.83
2023-05-20T04:33:09.382Z,15.87
2023-05-20T04:34:16.096Z,15.89
2023-05-20T04:35:20.742Z,15.90
2023-05-20T04:36:26.467Z,15.89
2023-05-20T04:37:31.590Z,15.91
2023-05-20T04:38:36.345Z,15.91
2023-05-20T04:39:40.962Z,15.93
2023-05-20T04:40:46.242Z,15.95
2023-05-20T04:41:51.193Z,15.97
2023-05-20T04:42:56.409Z,15.96
2023-05-20T04:44:01.519Z,15.97
2023-05-20T04:45:09.647Z,16.00
2023-05-20T04:46:15.383Z,16.02
2023-05-20T04:47:20.690Z,16.06
2023-05-20T04:48:26.418Z,16.10
2023-05-20T04:49:31.092Z,16.14
2023-05-20T04:50:35.798Z,16.15
2023-05-20T04:51:40.972Z,16.17
2023-05-20T04:52:45.604Z,16.23
2023-05-20T04:53:49.859Z,16.27
2023-05-20T04:54:56.113Z,16.34
2023-05-20T04:56:00.688Z,16.41
2023-05-20T04:57:06.430Z,16.51
2023-05-20T04:58:12.237Z,16.61
2023-05-20T04:59:16.802Z,16.74
2023-05-20T05:00:21.515Z,16.84
2023-05-20T05:01:26.970Z,16.91
2023-05-20T05:02:32.071Z,16.93
2023-05-20T05:03:37.344Z,16.97
2023-05-20T05:04:42.158Z,17.00
2023-05-20T05:05:47.235Z,17.05
2023-05-20T05:06:52.664Z,17.08
2023-05-20T05:07:57.756Z,17.12
2023-05-20T05:09:03.058Z,17.14
2023-05-20T05:10:07.572Z,17.16
2023-05-20T05:11:12.938Z,17.09
2023-05-20T05:12:18.039Z,17.08
2023-05-20T05:13:23.302Z,17.06
2023-05-20T05:14:27.816Z,17.05
2023-05-20T05:15:33.132Z,17.03
2023-05-20T05:16:39.245Z,17.01
2023-05-20T05:17:43.986Z,16.99
2023-05-20T05:18:49.612Z,17.00
2023-05-20T05:19:55.167Z,17.03
2023-05-20T05:21:04.084Z,17.05
2023-05-20T05:22:09.736Z,17.06
2023-05-20T05:23:14.303Z,17.09
2023-05-20T05:24:19.017Z,17.15
2023-05-20T05:25:25.441Z,17.21
2023-05-20T05:26:30.677Z,17.25
2023-05-20T05:27:35.715Z,17.30
2023-05-20T05:28:40.910Z,17.34
2023-05-20T05:29:45.554Z,17.31
2023-05-20T05:30:50.306Z,17.21
2023-05-20T05:31:54.941Z,17.16
2023-05-20T05:33:01.625Z,17.15
2023-05-20T05:34:06.276Z,17.18
2023-05-20T05:35:11.921Z,17.22
2023-05-20T05:36:18.658Z,17.24
2023-05-20T05:37:23.834Z,17.31
2023-05-20T05:38:29.784Z,17.33
2023-05-20T05:39:35.014Z,17.36
2023-05-20T05:40:40.064Z,17.40
2023-05-20T05:41:45.291Z,17.41
2023-05-20T05:42:50.306Z,17.47
2023-05-20T05:43:55.929Z,17.53
2023-05-20T05:45:01.120Z,17.57
2023-05-20T05:46:06.583Z,17.64
2023-05-20T05:47:11.329Z,17.75
2023-05-20T05:48:17.319Z,17.83
2023-05-20T05:49:22.408Z,17.90
2023-05-20T05:50:27.555Z,18.00
2023-05-20T05:51:32.729Z,18.01
2023-05-20T05:52:38.658Z,18.03
2023-05-20T05:53:44.939Z,18.11
2023-05-20T05:54:49.246Z,18.19
2023-05-20T05:55:54.484Z,18.27
2023-05-20T05:56:59.109Z,18.33
2023-05-20T05:58:04.960Z,18.36
2023-05-20T05:59:09.683Z,18.38
2023-05-20T06:00:16.699Z,18.39
2023-05-20T06:01:24.079Z,18.45
2023-05-20T06:02:28.977Z,18.51
2023-05-20T06:03:33.685Z,18.58
2023-05-20T06:04:39.195Z,18.60
2023-05-20T06:05:48.303Z,18.61
2023-05-20T06:06:53.354Z,18.62
2023-05-20T06:07:58.473Z,18.59
2023-05-20T06:09:03.498Z,18.61
2023-05-20T06:10:08.375Z,18.63
2023-05-20T06:11:14.613Z,18.60
2023-05-20T06:12:23.844Z,18.50
2023-05-20T06:13:28.526Z,18.45
2023-05-20T06:14:35.568Z,18.47
2023-05-20T06:15:42.139Z,18.46
2023-05-20T06:16:47.326Z,18.48
2023-05-20T06:17:52.432Z,18.54
2023-05-20T06:18:57.777Z,18.50
2023-05-20T06:20:02.885Z,18.51
2023-05-20T06:21:07.618Z,18.56
2023-05-20T06:22:12.204Z,18.56
2023-05-20T06:23:17.899Z,18.60
2023-05-20T06:24:29.736Z,18.65
2023-05-20T06:25:35.140Z,18.69
2023-05-20T06:26:37.555Z,18.71
2023-05-20T06:27:42.880Z,18.75
2023-05-20T06:28:49.118Z,18.78
2023-05-20T06:29:54.361Z,18.82
2023-05-20T06:30:58.848Z,18.83
2023-05-20T06:32:05.069Z,18.84
2023-05-20T06:33:07.975Z,18.81
2023-05-20T06:34:12.854Z,18.82
2023-05-20T06:35:17.634Z,18.84
2023-05-20T06:36:22.368Z,18.80
2023-05-20T06:37:27.914Z,18.82
2023-05-20T06:38:32.891Z,18.84
2023-05-20T06:39:38.128Z,18.86
2023-05-20T06:40:43.683Z,18.87
2023-05-20T06:41:48.670Z,18.83
2023-05-20T06:42:55.378Z,18.86
2023-05-20T06:44:02.337Z,18.91
2023-05-20T06:45:14.991Z,18.98
2023-05-20T06:46:30.976Z,19.06
2023-05-20T06:47:40.176Z,19.09
2023-05-20T06:48:45.159Z,19.09
2023-05-20T06:49:50.129Z,19.02
2023-05-20T06:50:54.665Z,19.03
2023-05-20T06:51:59.344Z,19.07
2023-05-20T06:53:04.032Z,19.04
2023-05-20T06:54:09.697Z,19.08
2023-05-20T06:55:16.011Z,19.00
2023-05-20T06:56:21.257Z,19.06
2023-05-20T06:57:26.373Z,19.08
2023-05-20T06:58:31.609Z,19.12
2023-05-20T06:59:36.717Z,19.14
2023-05-20T07:00:42.295Z,19.17
2023-05-20T07:01:47.376Z,19.22
2023-05-20T07:02:52.173Z,19.22
2023-05-20T07:03:58.320Z,19.27
2023-05-20T07:05:03.356Z,19.31
2023-05-20T07:06:08.022Z,19.37
2023-05-20T07:07:14.509Z,19.40
2023-05-20T07:08:19.578Z,19.42
2023-05-20T07:09:25.612Z,19.44
2023-05-20T07:10:30.320Z,19.47
2023-05-20T07:16:09.559Z,19.61
2023-05-20T07:17:16.201Z,19.60
2023-05-20T07:18:22.306Z,19.60
2023-05-20T07:19:31.527Z,19.60
2023-05-20T07:20:36.317Z,19.65
2023-05-20T07:21:43.575Z,19.63
2023-05-20T07:23:00.112Z,19.64
2023-05-20T07:24:12.156Z,19.68
2023-05-20T07:25:16.937Z,19.61
2023-05-20T07:26:21.514Z,19.63
2023-05-20T07:27:26.142Z,19.65
2023-05-20T07:28:31.450Z,19.68
2023-05-20T07:29:37.691Z,19.71
2023-05-20T07:30:42.489Z,19.77
2023-05-20T07:31:55.184Z,19.84
2023-05-20T07:32:59.674Z,19.82
2023-05-20T07:34:05.066Z,19.84
2023-05-20T07:35:10.439Z,19.88
2023-05-20T07:36:15.635Z,19.89
2023-05-20T07:37:22.506Z,19.90
2023-05-20T07:38:28.019Z,19.93
2023-05-20T07:39:37.074Z,19.99
2023-05-20T07:40:44.165Z,20.06
2023-05-20T07:41:49.011Z,20.08
2023-05-20T07:42:53.703Z,20.12
2023-05-20T07:43:59.082Z,20.10
2023-05-20T07:45:03.517Z,20.07
2023-05-20T07:46:08.118Z,20.06
2023-05-20T07:47:13.375Z,20.03
2023-05-20T07:48:18.385Z,20.03
2023-05-20T07:49:23.402Z,20.10
2023-05-20T07:50:28.189Z,20.18
2023-05-20T07:51:33.458Z,20.19
2023-05-20T07:52:51.828Z,20.24
2023-05-20T07:53:44.698Z,20.28
2023-05-20T07:54:49.871Z,20.30
2023-05-20T07:55:55.039Z,20.31
2023-05-20T07:56:59.968Z,20.30
2023-05-20T07:58:05.803Z,20.29
2023-05-20T07:59:12.536Z,20.29
2023-05-20T08:00:20.244Z,20.27
2023-05-20T08:01:24.925Z,20.25
2023-05-20T08:02:29.722Z,20.24
2023-05-20T08:03:35.357Z,20.25
2023-05-20T08:04:42.634Z,20.27
2023-05-20T08:05:47.547Z,20.30
2023-05-20T08:06:52.253Z,20.28
2023-05-20T08:07:59.128Z,20.29
2023-05-20T08:09:05.225Z,20.30
2023-05-20T08:10:13.560Z,20.30
2023-05-20T08:11:20.166Z,20.29
2023-05-20T08:12:25.050Z,20.30
2023-05-20T08:13:30.547Z,20.32
2023-05-20T08:14:36.827Z,20.33
2023-05-20T08:15:42.139Z,20.35
2023-05-20T08:16:46.642Z,20.39
2023-05-20T08:17:52.242Z,20.41
2023-05-20T08:18:57.598Z,20.45
2023-05-20T08:20:02.092Z,20.46
2023-05-20T08:21:10.322Z,20.43
2023-05-20T08:22:14.795Z,20.40
2023-05-20T08:23:19.979Z,20.40
2023-05-20T08:24:25.122Z,20.41
2023-05-20T08:25:31.167Z,20.43
2023-05-20T08:26:35.709Z,20.47
2023-05-20T08:27:40.600Z,20.53
2023-05-20T08:28:45.331Z,20.54
2023-05-20T08:29:50.620Z,20.57
2023-05-20T08:30:55.113Z,20.60
2023-05-20T08:31:59.711Z,20.64
2023-05-20T08:33:04.299Z,20.66
2023-05-20T08:34:09.871Z,20.71
2023-05-20T08:35:15.018Z,20.76
2023-05-20T08:36:20.374Z,20.77
2023-05-20T08:37:24.488Z,20.81
2023-05-20T08:38:29.600Z,20.81
2023-05-20T08:39:34.655Z,20.76
2023-05-20T08:40:39.902Z,20.80
2023-05-20T08:41:45.120Z,20.86
2023-05-20T08:42:53.886Z,20.89
2023-05-20T08:43:59.284Z,20.92
2023-05-20T08:45:04.432Z,20.96
2023-05-20T08:46:11.579Z,20.95
2023-05-20T08:47:17.414Z,20.97
2023-05-20T08:48:21.721Z,21.01
2023-05-20T08:49:26.453Z,21.03
2023-05-20T08:50:31.611Z,21.07
2023-05-20T08:51:36.693Z,21.08
2023-05-20T08:53:53.763Z,21.17
2023-05-20T08:54:58.688Z,21.13
2023-05-20T08:56:01.698Z,21.18
2023-05-20T08:57:08.246Z,21.22
2023-05-20T08:58:13.390Z,21.30
2023-05-20T08:59:17.416Z,21.28
2023-05-20T09:00:23.202Z,21.28
2023-05-20T09:01:28.041Z,21.30
2023-05-20T09:02:33.206Z,21.31
2023-05-20T09:03:38.184Z,21.36
2023-05-20T09:04:43.191Z,21.37
2023-05-20T09:05:48.803Z,21.32
2023-05-20T09:06:54.033Z,21.30
2023-05-20T09:08:12.626Z,21.28
2023-05-20T09:09:17.551Z,21.27
2023-05-20T09:10:22.382Z,21.24
2023-05-20T09:11:27.669Z,21.19
2023-05-20T09:12:32.271Z,21.16
2023-05-20T09:13:37.015Z,21.16
2023-05-20T09:14:42.083Z,21.16
2023-05-20T09:15:47.210Z,21.18
2023-05-20T09:16:52.893Z,21.13
2023-05-20T09:17:57.605Z,21.13
2023-05-20T09:19:02.216Z,21.12
2023-05-20T09:20:11.348Z,21.13
2023-05-20T09:21:15.682Z,21.15
2023-05-20T09:27:54.426Z,21.43
2023-05-20T09:29:00.631Z,21.39
2023-05-20T09:30:06.539Z,21.44
2023-05-20T09:31:11.190Z,21.46
2023-05-20T09:32:15.904Z,21.47
2023-05-20T09:33:20.608Z,21.49
2023-05-20T09:34:26.533Z,21.53
2023-05-20T09:35:31.743Z,21.47
2023-05-20T09:36:36.805Z,21.47
2023-05-20T09:37:41.577Z,21.45
2023-05-20T09:38:46.696Z,21.37
2023-05-20T09:40:05.100Z,21.26
2023-05-20T09:42:25.159Z,21.40
2023-05-20T09:43:30.167Z,21.30
2023-05-20T09:44:33.599Z,21.35
2023-05-20T09:45:37.028Z,21.36
2023-05-20T09:46:42.603Z,21.36
2023-05-20T09:47:47.442Z,21.32
2023-05-20T09:48:53.439Z,21.30
2023-05-20T09:49:58.566Z,21.31
2023-05-20T09:51:03.730Z,21.32
2023-05-20T09:52:07.476Z,21.32
2023-05-20T09:53:12.781Z,21.28
2023-05-20T09:54:17.591Z,21.28
2023-05-20T09:55:25.740Z,21.28
2023-05-20T09:56:30.858Z,21.31
2023-05-20T09:58:44.914Z,21.52
2023-05-20T09:59:49.103Z,21.43
2023-05-20T10:00:53.433Z,21.46
2023-05-20T10:01:58.462Z,21.47
2023-05-20T10:03:03.907Z,21.44
2023-05-20T10:04:09.619Z,21.47
2023-05-20T10:05:18.506Z,21.48
2023-05-20T10:06:33.467Z,21.50
2023-05-20T10:08:15.397Z,21.50
2023-05-20T10:11:16.284Z,21.70
2023-05-20T10:12:34.130Z,21.64
2023-05-20T10:15:35.243Z,21.67
2023-05-20T10:17:03.319Z,21.56
2023-05-20T10:18:26.879Z,21.55
2023-05-20T10:19:34.090Z,21.55
2023-05-20T10:22:11.913Z,21.71
2023-05-20T10:23:26.706Z,21.62
2023-05-20T10:24:37.859Z,21.56
2023-05-20T10:25:43.880Z,21.56
2023-05-20T10:28:09.228Z,21.59
2023-05-20T10:29:15.954Z,21.48
2023-05-20T10:30:22.739Z,21.48
2023-05-20T10:31:27.305Z,21.48
2023-05-20T10:32:32.003Z,21.53
2023-05-20T10:33:40.901Z,21.56
2023-05-20T10:34:46.355Z,21.55
2023-05-20T10:35:54.104Z,21.53
2023-05-20T10:37:00.069Z,21.51
2023-05-20T10:38:14.157Z,21.46
2023-05-20T10:39:18.655Z,21.49
2023-05-20T10:40:24.834Z,21.50
2023-05-20T10:41:31.786Z,21.47
2023-05-20T10:42:36.800Z,21.51
2023-05-20T10:43:41.412Z,21.56
2023-05-20T10:44:48.107Z,21.61
2023-05-20T10:45:57.301Z,21.56
2023-05-20T10:48:11.466Z,21.57
2023-05-20T10:49:26.753Z,21.53
2023-05-20T10:50:36.447Z,21.49
2023-05-20T10:51:40.923Z,21.48
2023-05-20T10:52:45.336Z,21.46
2023-05-20T10:53:50.063Z,21.49
2023-05-20T10:55:00.290Z,21.52
2023-05-20T10:56:05.408Z,21.51
2023-05-20T10:57:11.112Z,21.48
2023-05-20T10:58:16.352Z,21.46
2023-05-20T10:59:21.687Z,21.46
2023-05-20T11:00:26.496Z,21.47
2023-05-20T11:01:32.198Z,21.51
2023-05-20T11:02:36.924Z,21.54
2023-05-20T11:03:48.173Z,21.55
2023-05-20T11:04:53.308Z,21.60
2023-05-20T11:05:57.942Z,21.62
2023-05-20T11:07:03.084Z,21.61
2023-05-20T11:08:27.157Z,21.60
2023-05-20T11:09:19.216Z,21.58
2023-05-20T11:10:23.719Z,21.55
2023-05-20T11:11:28.997Z,21.59
2023-05-20T11:12:35.169Z,21.66
2023-05-20T11:13:39.902Z,21.71
2023-05-20T11:14:45.119Z,21.71
2023-05-20T11:15:48.766Z,21.69
2023-05-20T11:16:54.832Z,21.67
2023-05-20T11:18:03.374Z,21.69
2023-05-20T11:19:10.255Z,21.75
2023-05-20T11:20:16.752Z,21.76
2023-05-20T11:21:21.891Z,21.80
2023-05-20T11:22:26.978Z,21.87
2023-05-20T11:23:29.999Z,21.91
2023-05-20T11:24:34.590Z,21.88
2023-05-20T11:25:39.576Z,21.89
2023-05-20T11:26:44.286Z,21.90
2023-05-20T11:27:48.986Z,21.91
2023-05-20T11:28:51.717Z,21.94
2023-05-20T11:29:56.129Z,21.96
2023-05-20T11:30:59.807Z,21.97
2023-05-20T11:32:04.358Z,22.00
2023-05-20T11:33:09.066Z,22.05
2023-05-20T11:34:13.797Z,22.09
2023-05-20T11:36:31.511Z,22.22
2023-05-20T11:37:38.453Z,22.16
2023-05-20T11:38:43.640Z,22.22
2023-05-20T11:39:48.258Z,22.25
2023-05-20T11:40:53.425Z,22.27
2023-05-20T11:41:59.240Z,22.24
2023-05-20T11:43:04.869Z,22.24
2023-05-20T11:44:11.735Z,22.24
2023-05-20T11:45:16.105Z,22.25
2023-05-20T11:46:20.452Z,22.26
2023-05-20T11:47:28.356Z,22.20
2023-05-20T11:48:33.644Z,22.18
2023-05-20T11:49:42.411Z,22.19
2023-05-20T11:50:49.625Z,22.21
2023-05-20T11:51:54.346Z,22.22
2023-05-20T11:53:01.042Z,22.26
2023-05-20T11:54:06.548Z,22.29
2023-05-20T11:55:14.656Z,22.28
2023-05-20T11:56:19.686Z,22.23
2023-05-20T11:57:24.728Z,22.22
2023-05-20T11:59:37.382Z,22.32
2023-05-20T12:00:50.562Z,22.24
2023-05-20T12:01:49.512Z,22.18
2023-05-20T12:02:54.127Z,22.18
2023-05-20T12:03:59.590Z,22.18
2023-05-20T12:05:04.785Z,22.20
2023-05-20T12:06:10.521Z,22.20
2023-05-20T12:07:15.291Z,22.14
2023-05-20T12:08:20.402Z,22.17
2023-05-20T12:09:24.966Z,22.12
2023-05-20T12:10:30.012Z,22.10
2023-05-20T12:12:48.402Z,22.22
2023-05-20T12:13:53.165Z,22.14
2023-05-20T12:14:58.300Z,22.13
2023-05-20T12:16:02.920Z,22.16
2023-05-20T12:17:07.677Z,22.14
2023-05-20T12:18:13.367Z,22.15
2023-05-20T12:19:18.776Z,22.14
2023-05-20T12:20:25.804Z,22.15
2023-05-20T12:22:38.531Z,22.23
2023-05-20T12:23:43.519Z,22.11
2023-05-20T12:24:48.673Z,22.11
2023-05-20T12:25:53.444Z,22.13
2023-05-20T12:26:58.230Z,22.17
2023-05-20T12:28:04.003Z,22.22
2023-05-20T12:29:08.540Z,22.26
2023-05-20T12:31:27.326Z,22.45
2023-05-20T12:32:31.602Z,22.40
2023-05-20T12:33:36.933Z,22.44
2023-05-20T12:34:41.725Z,22.49
2023-05-20T12:35:47.024Z,22.49
2023-05-20T12:36:51.897Z,22.49
2023-05-20T12:37:56.949Z,22.48
2023-05-20T12:39:01.616Z,22.49
2023-05-20T12:40:07.117Z,22.51
2023-05-20T12:41:11.712Z,22.52
2023-05-20T12:42:16.785Z,22.48
2023-05-20T12:43:21.894Z,22.44
2023-05-20T12:44:27.080Z,22.41
2023-05-20T12:45:32.266Z,22.34
2023-05-20T12:46:39.022Z,22.34
2023-05-20T12:47:43.697Z,22.36
2023-05-20T12:48:49.742Z,22.28
2023-05-20T12:49:54.994Z,22.23
2023-05-20T12:50:59.574Z,22.23
2023-05-20T12:52:08.593Z,22.24
2023-05-20T12:53:11.521Z,22.26
2023-05-20T12:54:16.061Z,22.32
2023-05-20T12:55:20.385Z,22.38
2023-05-20T12:56:25.085Z,22.41
2023-05-20T12:57:30.220Z,22.39
2023-05-20T12:58:34.579Z,22.36
2023-05-20T12:59:39.734Z,22.35
2023-05-20T13:00:44.509Z,22.31
2023-05-20T13:01:50.239Z,22.34
2023-05-20T13:02:55.567Z,22.37
2023-05-20T13:04:00.046Z,22.37
2023-05-20T13:05:04.550Z,22.38
2023-05-20T13:06:09.589Z,22.37
2023-05-20T13:07:14.295Z,22.30
2023-05-20T13:08:18.911Z,22.29
2023-05-20T13:09:23.365Z,22.33
2023-05-20T13:10:28.623Z,22.36
2023-05-20T13:11:33.622Z,22.39
2023-05-20T13:12:38.292Z,22.46
2023-05-20T13:13:43.659Z,22.50
2023-05-20T13:14:48.668Z,22.53
2023-05-20T13:15:53.653Z,22.53
2023-05-20T13:16:58.296Z,22.51
2023-05-20T13:18:03.325Z,22.52
2023-05-20T13:19:08.412Z,22.50
2023-05-20T13:20:14.576Z,22.49
2023-05-20T13:21:19.549Z,22.49
2023-05-20T13:22:25.324Z,22.51
2023-05-20T13:23:30.289Z,22.53
2023-05-20T13:24:36.280Z,22.55
2023-05-20T13:25:41.388Z,22.58
2023-05-20T13:26:45.836Z,22.57
2023-05-20T13:27:51.195Z,22.54
2023-05-20T13:28:56.412Z,22.55
2023-05-20T13:30:01.138Z,22.51
2023-05-20T13:31:07.292Z,22.49
2023-05-20T13:32:11.888Z,22.48
2023-05-20T13:33:16.394Z,22.50
2023-05-20T13:34:22.079Z,22.48
2023-05-20T13:35:27.202Z,22.43
2023-05-20T13:36:32.011Z,22.37
2023-05-20T13:37:37.108Z,22.32
2023-05-20T13:38:41.624Z,22.31
2023-05-20T13:39:46.643Z,22.35
2023-05-20T13:40:51.734Z,22.35
2023-05-20T13:41:56.334Z,22.37
2023-05-20T13:43:01.494Z,22.35
2023-05-20T13:44:06.920Z,22.36
2023-05-20T13:45:12.716Z,22.38
2023-05-20T13:46:18.172Z,22.40
2023-05-20T13:47:23.244Z,22.44
2023-05-20T13:48:28.331Z,22.47
2023-05-20T13:49:33.486Z,22.47
2023-05-20T13:50:38.893Z,22.43
2023-05-20T13:51:44.231Z,22.36
2023-05-20T13:52:49.259Z,22.31
2023-05-20T13:53:53.726Z,22.31
2023-05-20T13:54:58.414Z,22.35
2023-05-20T13:56:03.465Z,22.40
2023-05-20T13:57:10.060Z,22.45
2023-05-20T13:58:15.088Z,22.49
2023-05-20T13:59:20.091Z,22.50
2023-05-20T14:00:25.226Z,22.52
2023-05-20T14:01:32.035Z,22.45
2023-05-20T14:02:37.159Z,22.43
2023-05-20T14:03:43.250Z,22.44
2023-05-20T14:04:48.466Z,22.46
2023-05-20T14:05:53.062Z,22.47
2023-05-20T14:06:57.939Z,22.50
2023-05-20T14:08:03.049Z,22.52
2023-05-20T14:09:09.219Z,22.53
2023-05-20T14:10:14.327Z,22.49
2023-05-20T14:11:18.567Z,22.49
2023-05-20T14:12:23.581Z,22.51
2023-05-20T14:13:28.730Z,22.53
2023-05-20T14:14:34.008Z,22.54
2023-05-20T14:15:40.148Z,22.55
2023-05-20T14:16:45.311Z,22.58
2023-05-20T14:17:50.221Z,22.63
2023-05-20T14:18:55.258Z,22.63
2023-05-20T14:20:00.788Z,22.59
2023-05-20T14:21:06.092Z,22.53
2023-05-20T14:22:11.176Z,22.54
2023-05-20T14:23:15.899Z,22.56
2023-05-20T14:24:23.470Z,22.58
2023-05-20T14:25:27.786Z,22.61
2023-05-20T14:26:32.424Z,22.58
2023-05-20T14:27:37.603Z,22.54
2023-05-20T14:28:42.061Z,22.55
2023-05-20T14:29:46.701Z,22.55
2023-05-20T14:30:51.771Z,22.49
2023-05-20T14:31:54.202Z,22.48
2023-05-20T14:32:59.064Z,22.48
2023-05-20T14:34:05.712Z,22.50